sensor_id;sensor_type;location;lat;lon;timestamp;pressure;altitude;pressure_sealevel;temperature;humidity
49947;BME280;35839;48.662;13.300;2023-03-14T05:37:53;95740.28;;;6.85;100.00
49947;BME280;35839;48.662;13.300;2023-03-14T05:40:18;95741.59;;;6.81;100.00
49947;BME280;35839;48.662;13.300;2023-03-14T05:42:43;95747.06;;;7.03;100.00
49947;BME280;35839;48.662;13.300;2023-03-14T05:45:09;95743.47;;;7.12;100.00
49947;BME280;35839;48.662;13.300;2023-03-14T05:47:34;95739.50;;;7.24;100.00
49947;BME280;35839;48.662;13.300;2023-03-14T05:50:00;95736.72;;;7.26;100.00
49947;BME280;35839;48.662;13.300;2023-03-14T05:52:25;95748.63;;;7.20;100.00
49947;BME280;35839;48.662;13.300;2023-03-14T05:54:51;95739.34;;;7.17;100.00
49947;BME280;35839;48.662;13.300;2023-03-14T05:57:17;95737.41;;;7.20;100.00
49947;BME280;35839;48.662;13.300;2023-03-14T05:59:42;95739.69;;;7.23;100.00
49947;BME280;35839;48.662;13.300;2023-03-14T06:02:07;95743.13;;;7.15;100.00
49947;BME280;35839;48.662;13.300;2023-03-14T06:04:33;95750.03;;;7.39;100.00
49947;BME280;35839;48.662;13.300;2023-03-14T06:06:58;95748.81;;;7.50;100.00
49947;BME280;35839;48.662;13.300;2023-03-14T06:09:23;95751.66;;;7.32;100.00
49947;BME280;35839;48.662;13.300;2023-03-14T06:11:49;95736.78;;;7.49;100.00
49947;BME280;35839;48.662;13.300;2023-03-14T06:14:14;95741.44;;;7.22;100.00
49947;BME280;35839;48.662;13.300;2023-03-14T06:16:40;95734.94;;;7.26;100.00
49947;BME280;35839;48.662;13.300;2023-03-14T06:19:05;95731.53;;;7.26;100.00
49947;BME280;35839;48.662;13.300;2023-03-14T06:21:30;95724.00;;;7.39;100.00
49947;BME280;35839;48.662;13.300;2023-03-14T06:23:56;95722.34;;;7.38;100.00
49947;BME280;35839;48.662;13.300;2023-03-14T06:26:21;95732.81;;;7.30;100.00
49947;BME280;35839;48.662;13.300;2023-03-14T06:28:48;95723.34;;;7.37;100.00
49947;BME280;35839;48.662;13.300;2023-03-14T06:31:13;95729.50;;;7.44;100.00
49947;BME280;35839;48.662;13.300;2023-03-14T06:33:39;95724.59;;;7.41;100.00
49947;BME280;35839;48.662;13.300;2023-03-14T06:36:04;95709.97;;;7.40;100.00
49947;BME280;35839;48.662;13.300;2023-03-14T06:38:31;95703.31;;;7.37;100.00
49947;BME280;35839;48.662;13.300;2023-03-14T06:40:56;95707.31;;;7.17;100.00
49947;BME280;35839;48.662;13.300;2023-03-14T06:43:21;95696.00;;;7.33;100.00
49947;BME280;35839;48.662;13.300;2023-03-14T06:45:46;95695.56;;;7.52;100.00
49947;BME280;35839;48.662;13.300;2023-03-14T06:48:12;95700.09;;;7.58;100.00
49947;BME280;35839;48.662;13.300;2023-03-14T06:50:37;95687.97;;;7.74;100.00
49947;BME280;35839;48.662;13.300;2023-03-14T06:53:02;95697.03;;;7.78;100.00
49947;BME280;35839;48.662;13.300;2023-03-14T06:55:27;95689.69;;;7.81;100.00
49947;BME280;35839;48.662;13.300;2023-03-14T06:57:53;95694.94;;;7.96;100.00
49947;BME280;35839;48.662;13.300;2023-03-14T07:00:18;95693.63;;;8.00;100.00
49947;BME280;35839;48.662;13.300;2023-03-14T07:02:44;95695.44;;;8.15;100.00
49947;BME280;35839;48.662;13.300;2023-03-14T07:05:09;95687.41;;;8.39;100.00
49947;BME280;35839;48.662;13.300;2023-03-14T07:07:35;95698.69;;;8.40;100.00
49947;BME280;35839;48.662;13.300;2023-03-14T07:10:01;95691.72;;;8.32;100.00
49947;BME280;35839;48.662;13.300;2023-03-14T07:12:26;95695.38;;;8.61;100.00
49947;BME280;35839;48.662;13.300;2023-03-14T07:14:51;95701.59;;;8.75;100.00
49947;BME280;35839;48.662;13.300;2023-03-14T07:17:16;95691.78;;;8.92;100.00
49947;BME280;35839;48.662;13.300;2023-03-14T07:19:42;95693.75;;;8.90;100.00
49947;BME280;35839;48.662;13.300;2023-03-14T07:22:07;95691.78;;;8.92;100.00
49947;BME280;35839;48.662;13.300;2023-03-14T07:24:32;95684.81;;;9.14;100.00
49947;BME280;35839;48.662;13.300;2023-03-14T07:26:58;95682.16;;;9.07;100.00
49947;BME280;35839;48.662;13.300;2023-03-14T07:29:23;95688.50;;;9.19;100.00
49947;BME280;35839;48.662;13.300;2023-03-14T07:31:48;95689.41;;;9.26;100.00
49947;BME280;35839;48.662;13.300;2023-03-14T07:34:14;95686.88;;;9.18;100.00
49947;BME280;35839;48.662;13.300;2023-03-14T07:36:39;95680.84;;;9.33;100.00
49947;BME280;35839;48.662;13.300;2023-03-14T07:39:05;95684.44;;;9.32;100.00
49947;BME280;35839;48.662;13.300;2023-03-14T07:41:31;95682.69;;;9.39;100.00
49947;BME280;35839;48.662;13.300;2023-03-14T07:43:56;95683.97;;;9.43;100.00
49947;BME280;35839;48.662;13.300;2023-03-14T07:46:22;95688.31;;;9.36;100.00
49947;BME280;35839;48.662;13.300;2023-03-14T07:48:47;95691.00;;;9.27;100.00
49947;BME280;35839;48.662;13.300;2023-03-14T07:51:12;95696.00;;;9.44;100.00
49947;BME280;35839;48.662;13.300;2023-03-14T07:53:37;95712.28;;;9.61;100.00
49947;BME280;35839;48.662;13.300;2023-03-14T07:56:04;95710.09;;;9.64;100.00
49947;BME280;35839;48.662;13.300;2023-03-14T07:58:30;95701.91;;;9.67;100.00
49947;BME280;35839;48.662;13.300;2023-03-14T08:00:55;95705.91;;;9.85;100.00
49947;BME280;35839;48.662;13.300;2023-03-14T08:03:23;95701.16;;;9.74;100.00
49947;BME280;35839;48.662;13.300;2023-03-14T08:05:49;95706.38;;;9.74;100.00
49947;BME280;35839;48.662;13.300;2023-03-14T08:08:16;95710.56;;;9.68;100.00
49947;BME280;35839;48.662;13.300;2023-03-14T08:10:41;95701.72;;;9.90;100.00
49947;BME280;35839;48.662;13.300;2023-03-14T08:13:07;95713.34;;;9.88;100.00
49947;BME280;35839;48.662;13.300;2023-03-14T08:15:32;95723.00;;;9.87;100.00
49947;BME280;35839;48.662;13.300;2023-03-14T08:17:57;95733.91;;;9.91;100.00
49947;BME280;35839;48.662;13.300;2023-03-14T08:20:26;95728.00;;;9.82;100.00
49947;BME280;35839;48.662;13.300;2023-03-14T08:22:52;95733.41;;;9.81;100.00
49947;BME280;35839;48.662;13.300;2023-03-14T08:25:18;95733.22;;;10.04;100.00
49947;BME280;35839;48.662;13.300;2023-03-14T08:27:43;95732.41;;;10.03;100.00
49947;BME280;35839;48.662;13.300;2023-03-14T08:30:14;95720.09;;;9.97;100.00
49947;BME280;35839;48.662;13.300;2023-03-14T08:32:39;95724.69;;;9.95;100.00
49947;BME280;35839;48.662;13.300;2023-03-14T08:35:05;95717.47;;;9.97;100.00
49947;BME280;35839;48.662;13.300;2023-03-14T08:37:32;95723.47;;;9.91;100.00
49947;BME280;35839;48.662;13.300;2023-03-14T08:39:58;95713.81;;;9.91;100.00
49947;BME280;35839;48.662;13.300;2023-03-14T08:42:23;95714.63;;;9.92;100.00
49947;BME280;35839;48.662;13.300;2023-03-14T08:44:50;95711.88;;;10.00;100.00
49947;BME280;35839;48.662;13.300;2023-03-14T08:47:15;95709.69;;;10.04;100.00
49947;BME280;35839;48.662;13.300;2023-03-14T08:49:41;95710.50;;;10.04;100.00
49947;BME280;35839;48.662;13.300;2023-03-14T08:52:06;95711.75;;;10.08;100.00
49947;BME280;35839;48.662;13.300;2023-03-14T08:54:31;95712.38;;;10.10;100.00
49947;BME280;35839;48.662;13.300;2023-03-14T08:56:57;95706.56;;;10.15;100.00
49947;BME280;35839;48.662;13.300;2023-03-14T08:59:23;95705.25;;;10.04;100.00
49947;BME280;35839;48.662;13.300;2023-03-14T09:01:48;95710.38;;;10.12;100.00
49947;BME280;35839;48.662;13.300;2023-03-14T09:04:13;95702.53;;;10.34;100.00
49947;BME280;35839;48.662;13.300;2023-03-14T09:06:39;95702.44;;;10.27;100.00
49947;BME280;35839;48.662;13.300;2023-03-14T09:09:05;95704.63;;;10.45;100.00
49947;BME280;35839;48.662;13.300;2023-03-14T09:11:30;95703.50;;;10.54;100.00
49947;BME280;35839;48.662;13.300;2023-03-14T09:13:56;95707.06;;;10.47;100.00
49947;BME280;35839;48.662;13.300;2023-03-14T09:16:21;95712.72;;;10.50;100.00
49947;BME280;35839;48.662;13.300;2023-03-14T09:18:47;95708.78;;;10.61;100.00
49947;BME280;35839;48.662;13.300;2023-03-14T09:21:12;95713.66;;;10.71;100.00
49947;BME280;35839;48.662;13.300;2023-03-14T09:23:38;95712.88;;;10.70;100.00
49947;BME280;35839;48.662;13.300;2023-03-14T09:26:04;95720.66;;;10.64;100.00
49947;BME280;35839;48.662;13.300;2023-03-14T09:28:29;95719.59;;;10.58;100.00
49947;BME280;35839;48.662;13.300;2023-03-14T09:30:55;95719.72;;;10.71;100.00
49947;BME280;35839;48.662;13.300;2023-03-14T09:33:20;95712.59;;;10.59;100.00
49947;BME280;35839;48.662;13.300;2023-03-14T09:35:46;95711.72;;;10.80;100.00
49947;BME280;35839;48.662;13.300;2023-03-14T09:38:11;95711.91;;;10.78;100.00
49947;BME280;35839;48.662;13.300;2023-03-14T09:40:38;95710.66;;;10.74;100.00
49947;BME280;35839;48.662;13.300;2023-03-14T09:43:04;95722.28;;;10.65;100.00
49947;BME280;35839;48.662;13.300;2023-03-14T09:45:35;95722.50;;;10.63;100.00
49947;BME280;35839;48.662;13.300;2023-03-14T09:48:03;95723.38;;;10.77;100.00
49947;BME280;35839;48.662;13.300;2023-03-14T09:50:42;95725.53;;;11.02;100.00
49947;BME280;35839;48.662;13.300;2023-03-14T09:53:18;95723.69;;;10.67;100.00
49947;BME280;35839;48.662;13.300;2023-03-14T09:55:46;95720.59;;;10.85;100.00
49947;BME280;35839;48.662;13.300;2023-03-14T09:58:16;95720.31;;;10.73;100.00
49947;BME280;35839;48.662;13.300;2023-03-14T10:00:42;95712.97;;;10.90;100.00
49947;BME280;35839;48.662;13.300;2023-03-14T10:03:22;95717.75;;;10.80;100.00
49947;BME280;35839;48.662;13.300;2023-03-14T10:05:47;95719.25;;;10.61;100.00
49947;BME280;35839;48.662;13.300;2023-03-14T10:08:13;95724.28;;;10.91;100.00
49947;BME280;35839;48.662;13.300;2023-03-14T10:10:39;95718.16;;;11.12;100.00
49947;BME280;35839;48.662;13.300;2023-03-14T10:13:23;95714.41;;;11.34;100.00
49947;BME280;35839;48.662;13.300;2023-03-14T10:16:00;95722.81;;;11.23;100.00
49947;BME280;35839;48.662;13.300;2023-03-14T10:18:29;95725.59;;;11.15;100.00
49947;BME280;35839;48.662;13.300;2023-03-14T10:23:34;95708.03;;;11.09;100.00
49947;BME280;35839;48.662;13.300;2023-03-14T10:26:11;95719.44;;;10.94;100.00
49947;BME280;35839;48.662;13.300;2023-03-14T10:28:50;95717.13;;;11.13;100.00
49947;BME280;35839;48.662;13.300;2023-03-14T10:31:16;95709.88;;;11.15;100.00
49947;BME280;35839;48.662;13.300;2023-03-14T10:33:41;95704.66;;;11.15;100.00
49947;BME280;35839;48.662;13.300;2023-03-14T10:36:22;95714.81;;;11.31;100.00
49947;BME280;35839;48.662;13.300;2023-03-14T10:38:48;95719.25;;;11.31;100.00
49947;BME280;35839;48.662;13.300;2023-03-14T10:41:24;95725.31;;;11.38;100.00
49947;BME280;35839;48.662;13.300;2023-03-14T10:43:51;95717.56;;;11.23;100.00
49947;BME280;35839;48.662;13.300;2023-03-14T10:46:19;95712.25;;;11.45;100.00
49947;BME280;35839;48.662;13.300;2023-03-14T10:48:45;95702.00;;;11.70;100.00
49947;BME280;35839;48.662;13.300;2023-03-14T10:51:26;95693.91;;;11.45;100.00
49947;BME280;35839;48.662;13.300;2023-03-14T10:54:00;95694.72;;;11.52;100.00
49947;BME280;35839;48.662;13.300;2023-03-14T10:56:28;95697.22;;;11.80;100.00
49947;BME280;35839;48.662;13.300;2023-03-14T10:58:58;95697.56;;;11.57;100.00
49947;BME280;35839;48.662;13.300;2023-03-14T11:01:47;95686.66;;;11.60;100.00
49947;BME280;35839;48.662;13.300;2023-03-14T11:07:09;95684.59;;;11.35;100.00
49947;BME280;35839;48.662;13.300;2023-03-14T11:09:45;95679.81;;;11.72;100.00
49947;BME280;35839;48.662;13.300;2023-03-14T11:15:27;95684.78;;;12.15;100.00
49947;BME280;35839;48.662;13.300;2023-03-14T11:20:35;95678.50;;;11.90;100.00
49947;BME280;35839;48.662;13.300;2023-03-14T11:23:16;95680.03;;;11.64;100.00
49947;BME280;35839;48.662;13.300;2023-03-14T11:28:49;95680.13;;;12.04;100.00
49947;BME280;35839;48.662;13.300;2023-03-14T11:31:26;95675.63;;;11.85;100.00
49947;BME280;35839;48.662;13.300;2023-03-14T11:36:38;95667.41;;;12.01;100.00
49947;BME280;35839;48.662;13.300;2023-03-14T11:39:09;95658.34;;;12.17;100.00
49947;BME280;35839;48.662;13.300;2023-03-14T11:41:39;95662.56;;;12.31;100.00
49947;BME280;35839;48.662;13.300;2023-03-14T11:47:05;95653.22;;;11.75;100.00
49947;BME280;35839;48.662;13.300;2023-03-14T11:49:56;95647.63;;;12.12;100.00
49947;BME280;35839;48.662;13.300;2023-03-14T11:52:33;95637.13;;;12.12;100.00
49947;BME280;35839;48.662;13.300;2023-03-14T11:55:11;95632.28;;;11.95;100.00
49947;BME280;35839;48.662;13.300;2023-03-14T11:57:39;95634.28;;;11.93;100.00
49947;BME280;35839;48.662;13.300;2023-03-14T12:00:19;95629.03;;;11.87;100.00
49947;BME280;35839;48.662;13.300;2023-03-14T12:03:02;95634.25;;;11.73;100.00
49947;BME280;35839;48.662;13.300;2023-03-14T12:10:55;95656.81;;;11.54;100.00
49947;BME280;35839;48.662;13.300;2023-03-14T12:13:28;95652.06;;;11.98;100.00
49947;BME280;35839;48.662;13.300;2023-03-14T12:16:00;95652.88;;;12.18;100.00
49947;BME280;35839;48.662;13.300;2023-03-14T12:18:33;95640.97;;;12.02;100.00
49947;BME280;35839;48.662;13.300;2023-03-14T12:21:04;95641.78;;;12.30;100.00
49947;BME280;35839;48.662;13.300;2023-03-14T12:23:44;95632.47;;;12.47;100.00
49947;BME280;35839;48.662;13.300;2023-03-14T12:26:20;95629.78;;;12.74;100.00
49947;BME280;35839;48.662;13.300;2023-03-14T12:29:14;95636.31;;;12.31;100.00
49947;BME280;35839;48.662;13.300;2023-03-14T12:31:47;95635.69;;;12.49;100.00
49947;BME280;35839;48.662;13.300;2023-03-14T12:43:23;95631.50;;;12.08;100.00
49947;BME280;35839;48.662;13.300;2023-03-14T12:48:09;95627.03;;;12.02;100.00
49947;BME280;35839;48.662;13.300;2023-03-14T12:51:02;95628.22;;;12.33;100.00
49947;BME280;35839;48.662;13.300;2023-03-14T12:56:23;95613.31;;;11.87;100.00
49947;BME280;35839;48.662;13.300;2023-03-14T13:04:35;95619.88;;;10.81;100.00
49947;BME280;35839;48.662;13.300;2023-03-14T13:07:03;95620.44;;;10.70;100.00
49947;BME280;35839;48.662;13.300;2023-03-14T13:12:02;95609.13;;;11.11;100.00
49947;BME280;35839;48.662;13.300;2023-03-14T13:14:30;95605.50;;;11.12;100.00
49947;BME280;35839;48.662;13.300;2023-03-14T13:16:59;95610.59;;;11.33;100.00
49947;BME280;35839;48.662;13.300;2023-03-14T13:19:30;95601.13;;;11.39;100.00
49947;BME280;35839;48.662;13.300;2023-03-14T13:22:01;95599.38;;;10.91;100.00
49947;BME280;35839;48.662;13.300;2023-03-14T13:24:27;95606.78;;;10.81;100.00
49947;BME280;35839;48.662;13.300;2023-03-14T13:26:55;95606.75;;;10.74;100.00
49947;BME280;35839;48.662;13.300;2023-03-14T13:29:23;95603.19;;;10.82;100.00
49947;BME280;35839;48.662;13.300;2023-03-14T13:31:51;95622.75;;;10.51;100.00
49947;BME280;35839;48.662;13.300;2023-03-14T13:34:18;95618.78;;;10.62;100.00
49947;BME280;35839;48.662;13.300;2023-03-14T13:36:43;95619.78;;;11.03;100.00
49947;BME280;35839;48.662;13.300;2023-03-14T13:39:14;95623.13;;;11.38;100.00
49947;BME280;35839;48.662;13.300;2023-03-14T13:41:42;95622.50;;;11.36;100.00
49947;BME280;35839;48.662;13.300;2023-03-14T13:44:10;95624.06;;;11.30;100.00
49947;BME280;35839;48.662;13.300;2023-03-14T13:46:38;95619.31;;;11.67;100.00
49947;BME280;35839;48.662;13.300;2023-03-14T13:49:12;95609.22;;;11.57;100.00
49947;BME280;35839;48.662;13.300;2023-03-14T13:51:42;95615.09;;;11.66;100.00
49947;BME280;35839;48.662;13.300;2023-03-14T13:54:16;95615.72;;;11.68;100.00
49947;BME280;35839;48.662;13.300;2023-03-14T13:56:42;95613.53;;;11.98;100.00
49947;BME280;35839;48.662;13.300;2023-03-14T13:59:40;95612.72;;;12.25;100.00
49947;BME280;35839;48.662;13.300;2023-03-14T14:02:13;95608.06;;;12.07;100.00
49947;BME280;35839;48.662;13.300;2023-03-14T14:04:39;95615.06;;;11.53;100.00
49947;BME280;35839;48.662;13.300;2023-03-14T14:07:10;95610.91;;;11.98;100.00
49947;BME280;35839;48.662;13.300;2023-03-14T14:09:40;95613.53;;;11.92;100.00
49947;BME280;35839;48.662;13.300;2023-03-14T14:12:13;95615.31;;;11.85;100.00
49947;BME280;35839;48.662;13.300;2023-03-14T14:15:00;95618.31;;;11.81;100.00
49947;BME280;35839;48.662;13.300;2023-03-14T14:17:41;95609.47;;;12.09;100.00
49947;BME280;35839;48.662;13.300;2023-03-14T14:20:26;95612.91;;;12.16;100.00
49947;BME280;35839;48.662;13.300;2023-03-14T14:23:01;95605.44;;;12.13;100.00
49947;BME280;35839;48.662;13.300;2023-03-14T14:25:28;95605.63;;;12.32;100.00
49947;BME280;35839;48.662;13.300;2023-03-14T14:27:53;95609.66;;;12.34;100.00
49947;BME280;35839;48.662;13.300;2023-03-14T14:32:49;95612.28;;;12.48;100.00
49947;BME280;35839;48.662;13.300;2023-03-14T14:35:23;95618.09;;;12.56;100.00
49947;BME280;35839;48.662;13.300;2023-03-14T14:37:49;95623.38;;;12.43;100.00
49947;BME280;35839;48.662;13.300;2023-03-14T14:40:20;95628.19;;;12.59;100.00
49947;BME280;35839;48.662;13.300;2023-03-14T14:42:47;95624.97;;;12.57;100.00
49947;BME280;35839;48.662;13.300;2023-03-14T14:45:16;95623.19;;;12.38;100.00
49947;BME280;35839;48.662;13.300;2023-03-14T14:47:54;95622.56;;;12.49;100.00
49947;BME280;35839;48.662;13.300;2023-03-14T14:50:34;95622.53;;;13.91;100.00
49947;BME280;35839;48.662;13.300;2023-03-14T14:53:13;95617.34;;;14.60;100.00
49947;BME280;35839;48.662;13.300;2023-03-14T14:55:44;95621.22;;;14.07;100.00
49947;BME280;35839;48.662;13.300;2023-03-14T14:58:40;95629.41;;;13.67;100.00
49947;BME280;35839;48.662;13.300;2023-03-14T15:01:14;95629.00;;;13.32;100.00
49947;BME280;35839;48.662;13.300;2023-03-14T15:03:42;95626.47;;;12.98;100.00
49947;BME280;35839;48.662;13.300;2023-03-14T15:06:08;95625.03;;;13.02;100.00
49947;BME280;35839;48.662;13.300;2023-03-14T15:08:37;95625.75;;;12.78;100.00
49947;BME280;35839;48.662;13.300;2023-03-14T15:11:02;95636.78;;;12.93;100.00
49947;BME280;35839;48.662;13.300;2023-03-14T15:13:27;95646.28;;;12.94;100.00
49947;BME280;35839;48.662;13.300;2023-03-14T15:15:53;95654.44;;;12.66;100.00
49947;BME280;35839;48.662;13.300;2023-03-14T15:18:23;95655.44;;;12.72;100.00
49947;BME280;35839;48.662;13.300;2023-03-14T15:20:49;95661.97;;;12.22;100.00
49947;BME280;35839;48.662;13.300;2023-03-14T15:23:17;95666.72;;;11.79;100.00
49947;BME280;35839;48.662;13.300;2023-03-14T15:25:43;95676.41;;;11.58;100.00
49947;BME280;35839;48.662;13.300;2023-03-14T15:28:25;95678.63;;;11.68;100.00
49947;BME280;35839;48.662;13.300;2023-03-14T15:30:56;95690.88;;;11.48;100.00
49947;BME280;35839;48.662;13.300;2023-03-14T15:33:22;95694.47;;;11.47;100.00
49947;BME280;35839;48.662;13.300;2023-03-14T15:35:48;95701.75;;;11.45;100.00
49947;BME280;35839;48.662;13.300;2023-03-14T15:38:17;95715.19;;;11.35;100.00
49947;BME280;35839;48.662;13.300;2023-03-14T15:40:44;95717.25;;;11.46;100.00
49947;BME280;35839;48.662;13.300;2023-03-14T15:43:09;95735.38;;;11.34;100.00
49947;BME280;35839;48.662;13.300;2023-03-14T15:45:35;95748.28;;;11.36;100.00
49947;BME280;35839;48.662;13.300;2023-03-14T15:48:00;95761.13;;;11.24;100.00
49947;BME280;35839;48.662;13.300;2023-03-14T15:50:26;95772.66;;;10.45;100.00
49947;BME280;35839;48.662;13.300;2023-03-14T15:52:52;95775.94;;;10.75;100.00
49947;BME280;35839;48.662;13.300;2023-03-14T15:55:17;95772.03;;;10.43;100.00
49947;BME280;35839;48.662;13.300;2023-03-14T15:57:43;95776.50;;;10.28;100.00
49947;BME280;35839;48.662;13.300;2023-03-14T16:00:14;95786.97;;;10.28;100.00
49947;BME280;35839;48.662;13.300;2023-03-14T16:02:41;95784.25;;;10.58;100.00
49947;BME280;35839;48.662;13.300;2023-03-14T16:05:09;95784.38;;;10.49;100.00
49947;BME280;35839;48.662;13.300;2023-03-14T16:07:35;95790.25;;;10.51;100.00
49947;BME280;35839;48.662;13.300;2023-03-14T16:10:00;95790.97;;;10.24;100.00
49947;BME280;35839;48.662;13.300;2023-03-14T16:12:25;95801.28;;;10.10;100.00
49947;BME280;35839;48.662;13.300;2023-03-14T16:14:51;95812.22;;;9.99;100.00
49947;BME280;35839;48.662;13.300;2023-03-14T16:17:16;95827.34;;;10.19;100.00
49947;BME280;35839;48.662;13.300;2023-03-14T16:19:41;95838.13;;;9.94;100.00
49947;BME280;35839;48.662;13.300;2023-03-14T16:22:07;95824.31;;;10.00;100.00
49947;BME280;35839;48.662;13.300;2023-03-14T16:24:32;95836.00;;;10.04;100.00
49947;BME280;35839;48.662;13.300;2023-03-14T16:26:57;95839.25;;;10.06;100.00
49947;BME280;35839;48.662;13.300;2023-03-14T16:29:22;95850.59;;;10.13;100.00
49947;BME280;35839;48.662;13.300;2023-03-14T16:31:48;95847.78;;;9.79;100.00
49947;BME280;35839;48.662;13.300;2023-03-14T16:34:13;95861.22;;;9.76;100.00
49947;BME280;35839;48.662;13.300;2023-03-14T16:36:38;95859.41;;;9.91;100.00
49947;BME280;35839;48.662;13.300;2023-03-14T16:39:03;95877.28;;;9.73;100.00
49947;BME280;35839;48.662;13.300;2023-03-14T16:41:29;95878.47;;;9.70;100.00
49947;BME280;35839;48.662;13.300;2023-03-14T16:43:58;95888.38;;;9.45;100.00
49947;BME280;35839;48.662;13.300;2023-03-14T16:46:23;95893.31;;;9.40;100.00
49947;BME280;35839;48.662;13.300;2023-03-14T16:48:53;95897.28;;;9.36;100.00
49947;BME280;35839;48.662;13.300;2023-03-14T16:51:19;95916.34;;;9.21;100.00
49947;BME280;35839;48.662;13.300;2023-03-14T16:53:44;95924.19;;;9.21;100.00
49947;BME280;35839;48.662;13.300;2023-03-14T16:56:10;95940.19;;;9.18;100.00
49947;BME280;35839;48.662;13.300;2023-03-14T16:58:36;95952.56;;;8.78;100.00
49947;BME280;35839;48.662;13.300;2023-03-14T17:01:10;95956.47;;;8.82;100.00
49947;BME280;35839;48.662;13.300;2023-03-14T17:03:40;95973.25;;;8.88;100.00
49947;BME280;35839;48.662;13.300;2023-03-14T17:06:07;95963.69;;;9.18;100.00
49947;BME280;35839;48.662;13.300;2023-03-14T17:08:32;95998.75;;;8.78;100.00
49947;BME280;35839;48.662;13.300;2023-03-14T17:10:57;95988.16;;;8.79;100.00
49947;BME280;35839;48.662;13.300;2023-03-14T17:13:23;96020.19;;;8.65;100.00
49947;BME280;35839;48.662;13.300;2023-03-14T17:15:54;96020.78;;;8.44;100.00
49947;BME280;35839;48.662;13.300;2023-03-14T17:18:21;96028.53;;;8.60;100.00
49947;BME280;35839;48.662;13.300;2023-03-14T17:20:47;96030.03;;;8.55;100.00
49947;BME280;35839;48.662;13.300;2023-03-14T17:23:12;96049.50;;;8.44;100.00
49947;BME280;35839;48.662;13.300;2023-03-14T17:25:38;96054.94;;;8.57;100.00
49947;BME280;35839;48.662;13.300;2023-03-14T17:28:04;96069.00;;;8.48;100.00
49947;BME280;35839;48.662;13.300;2023-03-14T17:30:30;96067.69;;;8.52;100.00
49947;BME280;35839;48.662;13.300;2023-03-14T17:32:56;96086.59;;;8.54;100.00
49947;BME280;35839;48.662;13.300;2023-03-14T17:35:21;96093.66;;;8.85;100.00
49947;BME280;35839;48.662;13.300;2023-03-14T17:37:46;96110.91;;;8.55;100.00
49947;BME280;35839;48.662;13.300;2023-03-14T17:40:12;96120.38;;;8.56;100.00
49947;BME280;35839;48.662;13.300;2023-03-14T17:42:37;96123.63;;;8.58;100.00
49947;BME280;35839;48.662;13.300;2023-03-14T17:45:03;96139.44;;;8.48;100.00
49947;BME280;35839;48.662;13.300;2023-03-14T17:47:28;96139.31;;;8.25;100.00
49947;BME280;35839;48.662;13.300;2023-03-14T17:49:54;96135.38;;;8.46;100.00
49947;BME280;35839;48.662;13.300;2023-03-14T17:52:19;96152.03;;;8.28;100.00
49947;BME280;35839;48.662;13.300;2023-03-14T17:54:44;96153.50;;;8.14;100.00
49947;BME280;35839;48.662;13.300;2023-03-14T17:57:10;96154.63;;;8.28;100.00
49947;BME280;35839;48.662;13.300;2023-03-14T17:59:35;96160.19;;;8.17;100.00
49947;BME280;35839;48.662;13.300;2023-03-14T18:02:00;96169.31;;;8.21;100.00
49947;BME280;35839;48.662;13.300;2023-03-14T18:04:26;96177.63;;;8.33;100.00
49947;BME280;35839;48.662;13.300;2023-03-14T18:06:51;96197.03;;;8.06;100.00
49947;BME280;35839;48.662;13.300;2023-03-14T18:09:16;96202.56;;;8.11;100.00
49947;BME280;35839;48.662;13.300;2023-03-14T18:11:41;96209.91;;;8.23;100.00
49947;BME280;35839;48.662;13.300;2023-03-14T18:14:07;96212.34;;;8.17;100.00
49947;BME280;35839;48.662;13.300;2023-03-14T18:16:33;96217.88;;;8.38;100.00
49947;BME280;35839;48.662;13.300;2023-03-14T18:18:58;96228.31;;;8.22;100.00
49947;BME280;35839;48.662;13.300;2023-03-14T18:21:24;96225.19;;;7.94;100.00
49947;BME280;35839;48.662;13.300;2023-03-14T18:23:50;96210.06;;;8.14;100.00
49947;BME280;35839;48.662;13.300;2023-03-14T18:26:16;96237.13;;;8.05;100.00
49947;BME280;35839;48.662;13.300;2023-03-14T18:28:42;96236.25;;;7.88;100.00
49947;BME280;35839;48.662;13.300;2023-03-14T18:31:10;96248.81;;;7.92;100.00
49947;BME280;35839;48.662;13.300;2023-03-14T18:33:36;96257.63;;;7.91;100.00
49947;BME280;35839;48.662;13.300;2023-03-14T18:36:07;96252.75;;;7.88;100.00
49947;BME280;35839;48.662;13.300;2023-03-14T18:38:32;96268.53;;;7.87;100.00
49947;BME280;35839;48.662;13.300;2023-03-14T18:41:08;96273.03;;;7.68;100.00
49947;BME280;35839;48.662;13.300;2023-03-14T18:43:34;96289.53;;;7.85;99.48
49947;BME280;35839;48.662;13.300;2023-03-14T18:45:59;96282.66;;;7.76;99.65
49947;BME280;35839;48.662;13.300;2023-03-14T18:48:25;96279.41;;;7.66;96.80
49947;BME280;35839;48.662;13.300;2023-03-14T18:50:51;96276.69;;;8.00;96.63
49947;BME280;35839;48.662;13.300;2023-03-14T18:53:17;96294.25;;;7.81;95.87
49947;BME280;35839;48.662;13.300;2023-03-14T18:55:42;96288.91;;;7.91;94.85
49947;BME280;35839;48.662;13.300;2023-03-14T18:58:07;96294.22;;;7.65;93.54
49947;BME280;35839;48.662;13.300;2023-03-14T19:00:33;96297.00;;;7.80;92.77
49947;BME280;35839;48.662;13.300;2023-03-14T19:03:02;96298.78;;;7.29;96.59
49947;BME280;35839;48.662;13.300;2023-03-14T19:05:28;96296.44;;;7.44;92.63
49947;BME280;35839;48.662;13.300;2023-03-14T19:07:53;96300.53;;;7.54;92.43
49947;BME280;35839;48.662;13.300;2023-03-14T19:10:22;96302.78;;;7.57;90.99
49947;BME280;35839;48.662;13.300;2023-03-14T19:12:47;96315.28;;;7.46;92.04
49947;BME280;35839;48.662;13.300;2023-03-14T19:15:12;96316.75;;;7.40;89.36
49947;BME280;35839;48.662;13.300;2023-03-14T19:17:38;96319.75;;;7.62;89.44